SBCZ/CZS METAR and TAF weather

Enter ICAO airport designator
Station Type Date Time Source
SBCZ METAR 2021/07/24 20:00 UTC NOAA

SBCZ 242000Z 15004KT 9999 FEW030 32/18 Q1012


Station Type Date Time Source
SBCZ Decoded METAR 2021/07/24 20:00 UTC NOAA

Cruzeiro Do Sul, Brazil (SBCZ) 07-38S 072-40W
Jul 24, 2021 - 04:00 PM EDT / 2021.07.24 2000 UTC
Wind: from the SSE (150 degrees) at 5 MPH (4 KT):0
Visibility: greater than 7 mile(s):0
Sky conditions: mostly clear
Temperature: 89 F (32 C)
Dew Point: 64 F (18 C)
Relative Humidity: 43%
Pressure (altimeter): 29.88 in. Hg (1012 hPa)
ob: SBCZ 242000Z 15004KT 9999 FEW030 32/18 Q1012
cycle: 20

Station Type Date Time Source
SBCZ TAF 2021/07/24 18:03 UTC NOAA

TAF TAF SBCZ 241500Z 2418/2518 14007KT 9999 FEW025 TX33/2418Z TN25/2514Z
BECMG 2421/2423 16004KT CAVOK
BECMG 2513/2515 13007KT
BECMG 2515/2518 17007KT FEW025
RMK PHN

Example: see airport list